createdAt,value
2022-11-12T00:00:21.720Z,9.73
2022-11-12T00:03:08.462Z,9.72
2022-11-12T00:05:54.217Z,9.73
2022-11-12T00:08:39.887Z,9.71
2022-11-12T00:11:25.115Z,9.78
2022-11-12T00:14:10.554Z,9.77
2022-11-12T00:16:55.806Z,9.79
2022-11-12T00:19:41.187Z,9.74
2022-11-12T00:22:26.604Z,9.76
2022-11-12T00:25:11.946Z,9.74
2022-11-12T00:28:08.949Z,9.71
2022-11-12T00:30:54.280Z,9.73
2022-11-12T00:33:41.694Z,9.72
2022-11-12T00:36:27.018Z,9.74
2022-11-12T00:39:12.615Z,9.71
2022-11-12T00:41:58.044Z,9.74
2022-11-12T00:44:43.397Z,9.73
2022-11-12T00:47:28.954Z,9.78
2022-11-12T00:50:16.022Z,9.79
2022-11-12T00:53:01.271Z,9.82
2022-11-12T00:55:46.855Z,9.81
2022-11-12T00:58:34.700Z,9.77
2022-11-12T01:01:20.514Z,9.79
2022-11-12T01:04:06.515Z,9.82
2022-11-12T01:06:51.750Z,9.82
2022-11-12T01:09:37.376Z,9.84
2022-11-12T01:12:22.862Z,9.81
2022-11-12T01:15:08.983Z,9.80
2022-11-12T01:17:54.678Z,9.78
2022-11-12T01:20:40.222Z,9.81
2022-11-12T01:23:25.665Z,9.74
2022-11-12T01:26:13.953Z,9.71
2022-11-12T01:28:59.254Z,9.67
2022-11-12T01:31:44.712Z,9.64
2022-11-12T01:34:30.575Z,9.64
2022-11-12T01:37:16.091Z,9.61
2022-11-12T01:40:01.653Z,9.62
2022-11-12T01:42:52.683Z,9.58
2022-11-12T01:45:42.331Z,9.59
2022-11-12T01:48:33.038Z,9.55
2022-11-12T01:51:21.514Z,9.55
2022-11-12T01:54:10.897Z,9.57
2022-11-12T01:56:58.374Z,9.58
2022-11-12T01:59:47.654Z,9.52
2022-11-12T02:02:36.200Z,9.51
2022-11-12T02:05:24.000Z,9.48
2022-11-12T02:08:11.265Z,9.48
2022-11-12T02:10:56.771Z,9.48
2022-11-12T02:13:57.974Z,9.45
2022-11-12T02:16:46.015Z,9.45
2022-11-12T02:19:31.258Z,9.44
2022-11-12T02:22:16.669Z,9.45
2022-11-12T02:25:01.942Z,9.43
2022-11-12T02:27:51.812Z,9.44
2022-11-12T02:30:46.625Z,9.44
2022-11-12T02:33:31.979Z,9.40
2022-11-12T02:36:17.417Z,9.41
2022-11-12T02:39:02.825Z,9.42
2022-11-12T02:41:48.166Z,9.41
2022-11-12T02:44:33.793Z,9.41
2022-11-12T02:47:19.529Z,9.41
2022-11-12T02:50:05.430Z,9.39
2022-11-12T02:52:50.739Z,9.45
2022-11-12T02:55:36.191Z,9.50
2022-11-12T02:58:22.735Z,9.47
2022-11-12T03:01:08.489Z,9.54
2022-11-12T03:03:54.011Z,9.57
2022-11-12T03:25:42.310Z,9.19
2022-11-12T03:28:27.909Z,9.30
2022-11-12T03:31:13.578Z,9.41
2022-11-12T03:33:58.923Z,9.44
2022-11-12T03:36:44.309Z,9.41
2022-11-12T03:39:29.736Z,9.48
2022-11-12T03:42:14.951Z,9.52
2022-11-12T03:45:00.200Z,9.48
2022-11-12T03:47:50.478Z,9.51
2022-11-12T03:50:35.755Z,9.50
2022-11-12T03:53:21.092Z,9.52
2022-11-12T03:56:06.886Z,9.47
2022-11-12T03:58:52.268Z,9.50
2022-11-12T04:01:38.001Z,9.51
2022-11-12T04:04:23.611Z,9.56
2022-11-12T04:07:27.565Z,9.54
2022-11-12T04:10:13.130Z,9.58
2022-11-12T04:13:17.211Z,9.59
2022-11-12T04:16:49.329Z,9.58
2022-11-12T04:19:53.474Z,9.50
2022-11-12T04:22:38.932Z,9.45
2022-11-12T04:25:44.469Z,9.46
2022-11-12T04:28:29.923Z,9.47
2022-11-12T04:31:15.472Z,9.49
2022-11-12T04:34:20.945Z,9.53
2022-11-12T04:37:07.242Z,9.62
2022-11-12T04:39:53.473Z,9.69
2022-11-12T04:42:57.101Z,9.72
2022-11-12T04:45:45.197Z,9.77
2022-11-12T04:48:31.026Z,9.77
2022-11-12T04:51:34.866Z,9.85
2022-11-12T04:54:20.295Z,9.92
2022-11-12T04:57:05.918Z,9.94
2022-11-12T04:59:51.238Z,9.91
2022-11-12T05:02:36.549Z,9.98
2022-11-12T05:05:22.167Z,9.93
2022-11-12T05:08:07.628Z,9.83
2022-11-12T05:10:53.056Z,9.82
2022-11-12T05:13:38.316Z,9.87
2022-11-12T05:16:23.626Z,9.87
2022-11-12T05:19:09.297Z,9.93
2022-11-12T05:22:06.363Z,10.00
2022-11-12T05:24:51.831Z,10.05
2022-11-12T05:27:37.200Z,10.06
2022-11-12T05:30:22.495Z,10.20
2022-11-12T05:33:07.840Z,10.29
2022-11-12T05:35:56.416Z,10.41
2022-11-12T05:38:42.294Z,10.49
2022-11-12T05:41:32.897Z,10.50
2022-11-12T05:44:30.902Z,10.41
2022-11-12T05:47:16.851Z,10.33
2022-11-12T05:50:02.494Z,10.29
2022-11-12T05:52:47.807Z,10.19
2022-11-12T05:55:37.010Z,10.24
2022-11-12T05:58:22.500Z,10.22
2022-11-12T06:01:08.278Z,10.27
2022-11-12T06:03:53.521Z,10.27
2022-11-12T06:06:40.369Z,10.32
2022-11-12T06:09:25.657Z,10.33
2022-11-12T06:12:10.959Z,10.36
2022-11-12T06:14:56.537Z,10.40
2022-11-12T06:17:42.583Z,10.45
2022-11-12T06:20:27.845Z,10.38
2022-11-12T06:23:13.184Z,10.43
2022-11-12T06:25:58.667Z,10.43
2022-11-12T06:28:44.511Z,10.52
2022-11-12T06:31:29.835Z,10.63
2022-11-12T06:34:15.328Z,10.61
2022-11-12T06:37:00.711Z,10.67
2022-11-12T06:39:46.087Z,10.67
2022-11-12T06:42:31.621Z,10.88
2022-11-12T06:45:17.012Z,10.87
2022-11-12T06:48:02.544Z,10.90
2022-11-12T06:50:47.837Z,10.81
2022-11-12T06:53:33.419Z,10.87
2022-11-12T06:56:18.663Z,10.97
2022-11-12T06:59:04.107Z,10.96
2022-11-12T07:01:49.415Z,10.87
2022-11-12T07:04:35.083Z,10.72
2022-11-12T07:07:20.492Z,10.60
2022-11-12T07:10:06.276Z,10.55
2022-11-12T07:12:54.169Z,10.51
2022-11-12T07:15:39.510Z,10.48
2022-11-12T07:18:25.532Z,10.47
2022-11-12T07:21:13.893Z,10.46
2022-11-12T07:23:59.307Z,10.44
2022-11-12T07:26:47.415Z,10.51
2022-11-12T07:29:47.120Z,10.53
2022-11-12T07:32:36.190Z,10.54
2022-11-12T07:35:24.022Z,10.58
2022-11-12T07:38:09.406Z,10.60
2022-11-12T07:41:02.690Z,10.57
2022-11-12T07:43:49.419Z,10.55
2022-11-12T07:46:35.097Z,10.57
2022-11-12T07:49:20.363Z,10.62
2022-11-12T07:52:05.801Z,10.52
2022-11-12T07:54:51.431Z,10.58
2022-11-12T07:57:36.670Z,10.65
2022-11-12T08:00:22.053Z,10.69
2022-11-12T08:03:07.374Z,10.75
2022-11-12T08:05:53.022Z,10.86
2022-11-12T08:08:38.061Z,10.88
2022-11-12T08:11:23.928Z,11.01
2022-11-12T08:14:09.635Z,11.02
2022-11-12T08:16:54.979Z,11.06
2022-11-12T08:19:40.457Z,11.18
2022-11-12T08:22:25.950Z,11.29
2022-11-12T08:25:11.131Z,11.33
2022-11-12T08:27:58.388Z,11.28
2022-11-12T08:30:43.879Z,11.35
2022-11-12T08:33:30.399Z,11.57
2022-11-12T08:36:17.671Z,11.79
2022-11-12T08:39:02.737Z,11.74
2022-11-12T08:41:48.112Z,11.87
2022-11-12T08:44:33.462Z,12.02
2022-11-12T08:47:18.957Z,12.02
2022-11-12T08:50:04.376Z,12.18
2022-11-12T08:52:49.993Z,12.25
2022-11-12T08:55:36.481Z,12.39
2022-11-12T08:58:22.156Z,12.64
2022-11-12T09:01:08.296Z,13.13
2022-11-12T09:03:53.595Z,13.43
2022-11-12T09:06:39.024Z,15.34
2022-11-12T09:09:24.477Z,18.52
2022-11-12T09:12:19.110Z,20.45
2022-11-12T09:15:36.271Z,23.33
2022-11-12T09:18:15.056Z,26.51
2022-11-12T09:21:06.618Z,26.78
2022-11-12T09:23:52.123Z,29.16
2022-11-12T09:26:37.540Z,29.77
2022-11-12T09:29:23.013Z,28.20
2022-11-12T09:32:08.736Z,29.77
2022-11-12T09:34:54.126Z,27.53
2022-11-12T09:37:39.749Z,27.27
2022-11-12T09:40:52.785Z,29.49
2022-11-12T09:44:01.837Z,28.24
2022-11-12T09:47:01.637Z,27.37
2022-11-12T09:50:12.358Z,28.51
2022-11-12T09:53:46.976Z,25.17
2022-11-12T09:56:32.430Z,22.76
2022-11-12T09:59:18.618Z,20.64
2022-11-12T10:02:38.229Z,20.06
2022-11-12T10:05:31.984Z,20.36
2022-11-12T10:08:24.101Z,23.19
2022-11-12T10:11:18.733Z,23.64
2022-11-12T10:14:25.160Z,23.38
2022-11-12T10:17:23.450Z,24.21
2022-11-12T10:20:38.671Z,21.20
2022-11-12T10:23:41.977Z,19.15
2022-11-12T10:26:28.673Z,17.97
2022-11-12T10:29:25.125Z,17.38
2022-11-12T10:32:15.402Z,17.31
2022-11-12T10:35:00.769Z,17.29
2022-11-12T10:37:52.176Z,20.57
2022-11-12T10:40:40.160Z,22.96
2022-11-12T10:43:25.745Z,23.03
2022-11-12T10:46:22.765Z,20.92
2022-11-12T10:49:24.270Z,19.98
2022-11-12T10:52:24.851Z,21.66
2022-11-12T10:55:19.649Z,21.99
2022-11-12T10:58:10.998Z,24.43
2022-11-12T11:01:14.434Z,22.65
2022-11-12T11:04:00.592Z,23.15
2022-11-12T11:06:46.323Z,21.90
2022-11-12T11:09:32.810Z,20.80
2022-11-12T11:12:34.943Z,18.94
2022-11-12T11:15:23.324Z,18.31
2022-11-12T11:18:12.913Z,18.03
2022-11-12T11:21:41.931Z,18.20
2022-11-12T11:24:39.837Z,18.95
2022-11-12T11:27:40.425Z,21.36
2022-11-12T11:30:26.101Z,21.61
2022-11-12T11:33:23.176Z,20.47
2022-11-12T11:36:33.190Z,19.56
2022-11-12T11:39:30.946Z,20.45
2022-11-12T11:42:16.125Z,21.31
2022-11-12T11:45:22.800Z,22.01
2022-11-12T11:48:35.299Z,20.70
2022-11-12T11:51:29.721Z,21.55
2022-11-12T11:54:53.636Z,21.92
2022-11-12T11:58:12.774Z,18.96
2022-11-12T12:01:47.478Z,19.02
2022-11-12T12:04:32.505Z,18.69
2022-11-12T12:07:23.719Z,18.63
2022-11-12T12:10:12.002Z,17.49
2022-11-12T12:13:17.958Z,17.00
2022-11-12T12:16:29.969Z,16.21
2022-11-12T12:19:43.814Z,15.68
2022-11-12T12:22:45.211Z,15.02
2022-11-12T12:25:36.942Z,14.61
2022-11-12T12:28:37.627Z,14.70
2022-11-12T12:31:29.679Z,14.48
2022-11-12T12:34:26.701Z,14.25
2022-11-12T12:37:30.155Z,14.09
2022-11-12T12:40:37.438Z,13.98
2022-11-12T12:43:27.576Z,14.00
2022-11-12T12:46:16.633Z,14.02
2022-11-12T12:49:05.169Z,13.91
2022-11-12T12:51:55.579Z,13.84
2022-11-12T12:54:40.937Z,13.94
2022-11-12T12:57:31.104Z,13.82
2022-11-12T13:00:32.993Z,13.68
2022-11-12T13:03:46.274Z,13.50
2022-11-12T13:06:53.702Z,13.47
2022-11-12T13:09:39.259Z,13.59
2022-11-12T13:13:03.007Z,13.91
2022-11-12T13:15:55.138Z,14.15
2022-11-12T13:18:40.663Z,14.24
2022-11-12T13:21:25.924Z,14.13
2022-11-12T13:24:11.428Z,13.87
2022-11-12T13:27:00.300Z,13.61
2022-11-12T13:29:47.821Z,13.49
2022-11-12T13:32:36.463Z,13.52
2022-11-12T13:35:26.883Z,13.27
2022-11-12T13:38:17.146Z,13.17
2022-11-12T13:41:12.015Z,13.24
2022-11-12T13:43:57.805Z,13.23
2022-11-12T13:46:44.750Z,13.30
2022-11-12T13:49:30.525Z,13.47
2022-11-12T13:52:16.275Z,13.51
2022-11-12T13:55:03.650Z,13.50
2022-11-12T13:57:54.467Z,13.39
2022-11-12T14:00:39.933Z,13.36
2022-11-12T14:03:31.394Z,13.31
2022-11-12T14:06:22.415Z,13.24
2022-11-12T14:09:16.682Z,13.30
2022-11-12T14:12:31.239Z,13.35
2022-11-12T14:15:35.894Z,13.45
2022-11-12T14:18:39.163Z,13.42
2022-11-12T14:21:24.561Z,13.29
2022-11-12T14:24:12.558Z,13.18
2022-11-12T14:26:57.749Z,13.05
2022-11-12T14:29:43.974Z,13.00
2022-11-12T14:32:36.844Z,12.98
2022-11-12T14:35:25.663Z,12.87
2022-11-12T14:38:26.916Z,12.81
2022-11-12T14:41:24.208Z,12.67
2022-11-12T14:44:18.334Z,12.61
2022-11-12T14:47:04.289Z,12.55
2022-11-12T14:49:50.355Z,12.56
2022-11-12T14:52:41.985Z,12.55
2022-11-12T14:55:33.508Z,12.50
2022-11-12T14:58:21.241Z,12.53
2022-11-12T15:04:44.466Z,12.36
2022-11-12T15:07:57.215Z,12.18
2022-11-12T15:10:44.963Z,12.09
2022-11-12T15:27:42.004Z,11.46
2022-11-12T15:30:32.314Z,11.54
2022-11-12T15:33:22.666Z,11.66
2022-11-12T15:36:18.218Z,11.71
2022-11-12T15:39:04.971Z,11.74
2022-11-12T15:42:12.218Z,11.69
2022-11-12T15:45:00.965Z,11.74
2022-11-12T15:47:46.377Z,11.76
2022-11-12T15:50:31.833Z,11.77
2022-11-12T15:53:17.417Z,11.77
2022-11-12T15:56:03.750Z,11.76
2022-11-12T15:58:49.178Z,11.79
2022-11-12T16:01:35.186Z,11.80
2022-11-12T16:04:20.868Z,11.80
2022-11-12T16:07:07.185Z,11.77
2022-11-12T16:09:52.850Z,11.76
2022-11-12T16:12:37.918Z,11.76
2022-11-12T16:15:25.646Z,11.76
2022-11-12T16:18:12.304Z,11.70
2022-11-12T16:20:58.072Z,11.67
2022-11-12T16:23:43.417Z,11.65
2022-11-12T16:26:30.867Z,11.64
2022-11-12T16:29:16.627Z,11.63
2022-11-12T16:32:02.786Z,11.57
2022-11-12T16:34:48.144Z,11.51
2022-11-12T16:37:33.766Z,11.47
2022-11-12T16:40:21.999Z,11.40
2022-11-12T16:43:07.493Z,11.41
2022-11-12T16:45:52.753Z,11.37
2022-11-12T16:48:38.348Z,11.42
2022-11-12T16:51:24.132Z,11.44
2022-11-12T16:54:09.569Z,11.42
2022-11-12T16:56:54.647Z,11.47
2022-11-12T16:59:40.038Z,11.47
2022-11-12T17:02:25.386Z,11.54
2022-11-12T17:05:20.375Z,11.52
2022-11-12T17:08:06.102Z,11.50
2022-11-12T17:10:51.566Z,11.45
2022-11-12T17:13:38.820Z,11.45
2022-11-12T17:16:24.374Z,11.46
2022-11-12T17:19:10.651Z,11.50
2022-11-12T17:21:55.934Z,11.54
2022-11-12T17:24:41.429Z,11.57
2022-11-12T17:27:27.517Z,11.56
2022-11-12T17:30:13.508Z,11.62
2022-11-12T17:33:00.100Z,11.60
2022-11-12T17:35:45.395Z,11.64
2022-11-12T17:38:30.923Z,11.69
2022-11-12T17:41:16.281Z,11.67
2022-11-12T17:44:02.466Z,11.70
2022-11-12T17:46:48.500Z,11.71
2022-11-12T17:49:33.965Z,11.70
2022-11-12T17:52:19.366Z,11.64
2022-11-12T17:55:05.160Z,11.65
2022-11-12T17:57:50.569Z,11.63
2022-11-12T18:00:36.647Z,11.63
2022-11-12T18:03:22.013Z,11.63
2022-11-12T18:06:12.517Z,11.64
2022-11-12T18:09:04.613Z,11.57
2022-11-12T18:11:54.804Z,11.57
2022-11-12T18:14:40.233Z,11.53
2022-11-12T18:17:25.698Z,11.56
2022-11-12T18:20:11.424Z,11.53
2022-11-12T18:22:56.916Z,11.51
2022-11-12T18:25:42.395Z,11.43
2022-11-12T18:28:27.917Z,11.34
2022-11-12T18:31:13.554Z,11.29
2022-11-12T18:33:58.919Z,11.21
2022-11-12T18:36:44.357Z,11.17
2022-11-12T18:39:30.895Z,11.14
2022-11-12T18:42:16.224Z,11.11
2022-11-12T18:45:01.777Z,11.08
2022-11-12T18:47:47.211Z,11.12
2022-11-12T18:50:32.613Z,11.11
2022-11-12T18:53:18.178Z,11.18
2022-11-12T18:56:12.585Z,11.13
2022-11-12T18:58:57.722Z,11.16
2022-11-12T19:01:43.145Z,11.20
2022-11-12T19:04:29.144Z,11.19
2022-11-12T19:07:14.899Z,11.19
2022-11-12T19:10:00.170Z,11.21
2022-11-12T19:12:45.513Z,11.23
2022-11-12T19:15:34.151Z,11.28
2022-11-12T19:18:19.927Z,11.27
2022-11-12T19:21:16.902Z,11.30
2022-11-12T19:24:02.700Z,11.31
2022-11-12T19:26:47.813Z,11.34
2022-11-12T19:29:33.218Z,11.36
2022-11-12T19:32:18.586Z,11.33
2022-11-12T19:35:04.194Z,11.32
2022-11-12T19:37:49.446Z,11.28
2022-11-12T19:40:34.708Z,11.21
2022-11-12T19:43:21.867Z,11.17
2022-11-12T19:46:07.924Z,11.07
2022-11-12T19:48:52.996Z,11.04
2022-11-12T19:51:38.494Z,11.01
2022-11-12T19:54:24.067Z,11.00
2022-11-12T19:57:09.617Z,11.08
2022-11-12T19:59:55.160Z,11.15
2022-11-12T20:02:40.682Z,11.18
2022-11-12T20:05:26.126Z,11.28
2022-11-12T20:08:11.417Z,11.29
2022-11-12T20:10:57.150Z,11.35
2022-11-12T20:13:42.559Z,11.39
2022-11-12T20:16:27.887Z,11.32
2022-11-12T20:19:13.305Z,11.42
2022-11-12T20:21:58.649Z,11.46
2022-11-12T20:24:44.167Z,11.39
2022-11-12T20:27:29.732Z,11.32
2022-11-12T20:30:15.004Z,11.30
2022-11-12T20:33:00.464Z,11.25
2022-11-12T20:35:45.746Z,11.13
2022-11-12T20:38:31.331Z,11.04
2022-11-12T20:41:22.237Z,11.08
2022-11-12T20:44:07.265Z,11.02
2022-11-12T20:46:52.629Z,10.93
2022-11-12T20:49:38.086Z,10.91
2022-11-12T20:52:23.335Z,10.91
2022-11-12T20:55:09.226Z,10.89
2022-11-12T20:57:54.655Z,10.80
2022-11-12T21:00:40.789Z,10.79
2022-11-12T21:03:25.911Z,10.75
2022-11-12T21:06:16.996Z,10.70
2022-11-12T21:09:02.920Z,10.60
2022-11-12T21:11:48.077Z,10.62
2022-11-12T21:14:33.491Z,10.53
2022-11-12T21:17:19.828Z,10.55
2022-11-12T21:20:05.751Z,10.55
2022-11-12T21:22:51.026Z,10.53
2022-11-12T21:25:38.219Z,10.49
2022-11-12T21:28:24.065Z,10.54
2022-11-12T21:31:12.950Z,10.49
2022-11-12T21:34:00.995Z,10.47
2022-11-12T21:36:46.275Z,10.44
2022-11-12T21:39:31.558Z,10.43
2022-11-12T21:42:16.947Z,10.40
2022-11-12T21:45:02.453Z,10.29
2022-11-12T21:47:47.793Z,10.29
2022-11-12T21:50:33.291Z,10.22
2022-11-12T21:53:18.987Z,10.19
2022-11-12T21:56:06.687Z,10.08
2022-11-12T21:58:54.214Z,10.09
2022-11-12T22:01:40.669Z,10.12
2022-11-12T22:04:26.066Z,10.05
2022-11-12T22:07:11.567Z,9.98
2022-11-12T22:09:57.289Z,9.93
2022-11-12T22:13:04.892Z,9.93
2022-11-12T22:15:50.685Z,9.99
2022-11-12T22:18:37.016Z,9.93
2022-11-12T22:21:24.045Z,9.98
2022-11-12T22:24:11.047Z,9.96
2022-11-12T22:26:58.882Z,10.01
2022-11-12T22:29:49.246Z,10.04
2022-11-12T22:32:34.870Z,10.03
2022-11-12T22:35:20.183Z,10.02
2022-11-12T22:38:05.724Z,9.98
2022-11-12T22:40:50.706Z,9.90
2022-11-12T22:43:39.370Z,9.99
2022-11-12T22:46:30.443Z,9.95
2022-11-12T22:49:15.409Z,9.93
2022-11-12T22:52:00.826Z,9.90
2022-11-12T22:54:46.109Z,9.90
2022-11-12T22:57:32.229Z,9.87
2022-11-12T23:00:20.041Z,9.82
2022-11-12T23:03:05.689Z,9.83
2022-11-12T23:05:57.796Z,9.86
2022-11-12T23:08:43.392Z,10.00
2022-11-12T23:11:29.281Z,10.05
2022-11-12T23:14:14.633Z,10.17
2022-11-12T23:17:01.313Z,10.30
2022-11-12T23:19:46.495Z,10.36
2022-11-12T23:22:31.978Z,10.39
2022-11-12T23:25:17.453Z,10.55
2022-11-12T23:28:02.590Z,10.56
2022-11-12T23:30:52.880Z,10.68
2022-11-12T23:33:38.638Z,10.82
2022-11-12T23:36:26.054Z,10.85
2022-11-12T23:39:11.786Z,10.92
2022-11-12T23:41:57.114Z,10.99
2022-11-12T23:44:42.567Z,10.94
2022-11-12T23:47:28.248Z,10.93
2022-11-12T23:50:13.938Z,10.99
2022-11-12T23:52:59.397Z,11.03
2022-11-12T23:55:44.838Z,11.05
2022-11-12T23:58:31.443Z,11.05
